createdAt,value
2019-04-30T00:01:33.497Z,8.40
2019-04-30T00:04:13.296Z,8.40
2019-04-30T00:06:42.598Z,8.40
2019-04-30T00:09:17.095Z,8.40
2019-04-30T00:11:46.059Z,8.40
2019-04-30T00:14:16.757Z,8.40
2019-04-30T00:16:46.057Z,8.40
2019-04-30T00:19:19.441Z,8.50
2019-04-30T00:21:50.252Z,8.40
2019-04-30T00:24:17.522Z,8.40
2019-04-30T00:26:52.017Z,8.40
2019-04-30T00:29:26.410Z,8.40
2019-04-30T00:31:49.112Z,8.50
2019-04-30T00:34:18.465Z,8.40
2019-04-30T00:36:47.847Z,8.40
2019-04-30T00:39:27.222Z,8.40
2019-04-30T00:41:56.835Z,8.40
2019-04-30T00:44:28.271Z,8.40
2019-04-30T00:47:00.705Z,8.40
2019-04-30T00:49:28.444Z,8.50
2019-04-30T00:51:58.326Z,8.50
2019-04-30T00:54:30.660Z,8.60
2019-04-30T00:57:04.417Z,8.50
2019-04-30T00:59:30.048Z,8.50
2019-04-30T01:02:05.962Z,8.50
2019-04-30T01:04:37.721Z,8.40
2019-04-30T01:07:08.796Z,8.50
2019-04-30T01:09:39.656Z,8.60
2019-04-30T01:12:09.451Z,8.60
2019-04-30T01:14:40.416Z,8.50
2019-04-30T01:17:12.326Z,8.50
2019-04-30T01:19:41.300Z,8.40
2019-04-30T01:22:10.675Z,8.30
2019-04-30T01:24:40.060Z,8.50
2019-04-30T01:27:10.608Z,8.50
2019-04-30T01:29:44.091Z,8.50
2019-04-30T01:32:17.602Z,8.40
2019-04-30T01:34:44.211Z,8.40
2019-04-30T01:37:14.622Z,8.40
2019-04-30T01:39:44.917Z,8.40
2019-04-30T01:42:14.312Z,8.40
2019-04-30T01:44:50.475Z,8.40
2019-04-30T01:47:14.656Z,8.40
2019-04-30T01:49:45.129Z,8.50
2019-04-30T01:52:14.455Z,8.50
2019-04-30T01:54:43.774Z,8.50
2019-04-30T01:57:19.241Z,8.50
2019-04-30T02:00:02.274Z,8.40
2019-04-30T02:02:34.628Z,8.50
2019-04-30T02:05:08.905Z,8.40
2019-04-30T02:07:40.153Z,8.40
2019-04-30T02:10:09.855Z,8.40
2019-04-30T02:12:39.324Z,8.40
2019-04-30T02:15:09.533Z,8.40
2019-04-30T02:17:39.018Z,8.40
2019-04-30T02:20:10.366Z,8.30
2019-04-30T02:22:39.682Z,8.40
2019-04-30T02:25:09.936Z,8.40
2019-04-30T02:27:39.280Z,8.40
2019-04-30T02:30:11.074Z,8.40
2019-04-30T02:32:40.397Z,8.40
2019-04-30T02:35:14.124Z,8.50
2019-04-30T02:38:01.436Z,8.50
2019-04-30T02:40:33.934Z,8.50
2019-04-30T02:43:03.848Z,8.50
2019-04-30T02:45:35.425Z,8.60
2019-04-30T02:48:05.372Z,8.40
2019-04-30T02:50:35.530Z,8.40
2019-04-30T02:53:09.722Z,8.40
2019-04-30T02:55:45.400Z,8.40
2019-04-30T02:58:14.708Z,8.40
2019-04-30T03:00:44.038Z,8.40
2019-04-30T03:03:13.340Z,8.40
2019-04-30T03:05:42.674Z,8.50
2019-04-30T03:08:11.989Z,8.50
2019-04-30T03:10:41.318Z,8.40
2019-04-30T03:13:10.647Z,8.40
2019-04-30T03:15:39.972Z,8.40
2019-04-30T03:18:23.087Z,8.50
2019-04-30T03:20:52.661Z,8.50
2019-04-30T03:23:22.074Z,8.50
2019-04-30T03:25:51.378Z,8.50
2019-04-30T03:28:20.780Z,8.50
2019-04-30T03:30:56.167Z,8.50
2019-04-30T03:33:23.076Z,8.50
2019-04-30T03:35:54.143Z,8.50
2019-04-30T03:38:23.791Z,8.60
2019-04-30T03:40:53.288Z,8.50
2019-04-30T03:43:22.611Z,8.50
2019-04-30T03:45:51.923Z,8.50
2019-04-30T03:48:21.250Z,8.50
2019-04-30T03:50:56.682Z,8.50
2019-04-30T03:53:21.589Z,8.50
2019-04-30T03:55:50.946Z,8.50
2019-04-30T03:58:21.484Z,8.40
2019-04-30T04:00:53.728Z,8.50
2019-04-30T04:03:24.100Z,8.60
2019-04-30T04:06:00.750Z,8.50
2019-04-30T04:08:39.131Z,8.60
2019-04-30T04:11:10.329Z,8.60
2019-04-30T04:13:40.025Z,8.60
2019-04-30T04:16:10.511Z,8.60
2019-04-30T04:18:40.336Z,8.50
2019-04-30T04:21:16.504Z,8.50
2019-04-30T04:23:40.844Z,8.50
2019-04-30T04:26:10.172Z,8.50
2019-04-30T04:28:43.241Z,8.60
2019-04-30T04:31:10.573Z,8.60
2019-04-30T04:33:39.875Z,8.60
2019-04-30T04:36:09.547Z,8.60
2019-04-30T04:38:40.348Z,8.60
2019-04-30T04:41:10.397Z,8.60
2019-04-30T04:43:40.266Z,8.60
2019-04-30T04:46:09.793Z,8.60
2019-04-30T04:48:39.563Z,8.60
2019-04-30T04:51:19.814Z,8.70
2019-04-30T04:53:40.281Z,8.60
2019-04-30T04:56:10.210Z,8.70
2019-04-30T04:58:40.222Z,8.70
2019-04-30T05:01:11.853Z,8.70
2019-04-30T05:03:40.844Z,8.70
2019-04-30T05:06:11.832Z,8.70
2019-04-30T05:08:41.381Z,8.80
2019-04-30T05:11:10.784Z,8.80
2019-04-30T05:13:40.145Z,8.70
2019-04-30T05:16:09.508Z,8.80
2019-04-30T05:18:39.172Z,8.80
2019-04-30T05:21:08.959Z,8.80
2019-04-30T05:23:41.118Z,8.80
2019-04-30T05:26:11.077Z,8.80
2019-04-30T05:28:40.609Z,8.90
2019-04-30T05:31:09.912Z,8.90
2019-04-30T05:33:39.241Z,8.80
2019-04-30T05:36:09.345Z,8.90
2019-04-30T05:38:39.812Z,8.90
2019-04-30T05:41:09.409Z,8.90
2019-04-30T05:43:38.839Z,8.90
2019-04-30T05:46:10.794Z,8.90
2019-04-30T05:48:39.766Z,8.90
2019-04-30T05:51:10.332Z,8.90
2019-04-30T05:53:39.648Z,9.00
2019-04-30T05:56:09.527Z,8.90
2019-04-30T05:58:39.813Z,9.00
2019-04-30T06:01:09.790Z,9.00
2019-04-30T06:03:40.522Z,9.00
2019-04-30T06:06:11.455Z,9.00
2019-04-30T06:08:45.329Z,8.90
2019-04-30T06:11:19.313Z,9.00
2019-04-30T06:13:53.316Z,9.00
2019-04-30T06:16:24.436Z,9.10
2019-04-30T06:18:53.913Z,9.10
2019-04-30T06:21:23.292Z,9.10
2019-04-30T06:23:52.753Z,9.10
2019-04-30T06:26:22.300Z,9.10
2019-04-30T06:28:51.715Z,9.10
2019-04-30T06:31:31.902Z,9.10
2019-04-30T06:33:52.472Z,9.20
2019-04-30T06:36:21.852Z,9.20
2019-04-30T06:38:51.200Z,9.20
2019-04-30T06:41:20.512Z,9.20
2019-04-30T06:43:50.372Z,9.20
2019-04-30T06:46:19.746Z,9.20
2019-04-30T06:48:51.103Z,9.20
2019-04-30T06:51:21.253Z,9.30
2019-04-30T06:53:51.366Z,9.30
2019-04-30T06:56:20.787Z,9.30
2019-04-30T06:58:52.603Z,9.30
2019-04-30T07:01:23.727Z,9.30
2019-04-30T07:03:53.209Z,9.40
2019-04-30T07:06:29.605Z,9.40
2019-04-30T07:08:59.654Z,9.40
2019-04-30T07:11:49.334Z,9.40
2019-04-30T07:14:19.537Z,9.40
2019-04-30T07:16:49.491Z,9.40
2019-04-30T07:19:29.950Z,9.40
2019-04-30T07:21:49.939Z,9.40
2019-04-30T07:24:20.972Z,9.40
2019-04-30T07:26:54.682Z,9.40
2019-04-30T07:29:21.488Z,9.40
2019-04-30T07:31:51.668Z,9.50
2019-04-30T07:34:21.320Z,9.50
2019-04-30T07:37:10.424Z,9.40
2019-04-30T07:39:23.568Z,9.40
2019-04-30T07:41:52.748Z,9.50
2019-04-30T07:46:53.079Z,9.50
2019-04-30T07:49:22.408Z,9.50
2019-04-30T07:51:52.877Z,9.50
2019-04-30T07:54:22.736Z,9.50
2019-04-30T07:56:52.068Z,9.60
2019-04-30T07:59:21.490Z,9.60
2019-04-30T08:02:04.058Z,9.70
2019-04-30T08:04:29.287Z,9.70
2019-04-30T08:07:00.258Z,9.80
2019-04-30T08:09:36.969Z,9.50
2019-04-30T08:09:39.228Z,9.80
2019-04-30T08:12:01.091Z,9.90
2019-04-30T08:14:30.603Z,9.90
2019-04-30T08:16:59.984Z,9.90
2019-04-30T08:19:30.389Z,9.90
2019-04-30T08:22:00.816Z,9.80
2019-04-30T08:24:30.213Z,9.80
2019-04-30T08:27:01.315Z,9.80
2019-04-30T08:29:30.716Z,9.80
2019-04-30T08:32:00.045Z,9.80
2019-04-30T08:34:29.385Z,9.70
2019-04-30T08:36:59.423Z,9.70
2019-04-30T08:39:31.624Z,9.70
2019-04-30T08:42:00.070Z,9.80
2019-04-30T08:44:29.716Z,9.80
2019-04-30T08:47:00.100Z,9.80
2019-04-30T08:49:30.410Z,9.80
2019-04-30T08:52:00.260Z,9.80
2019-04-30T08:54:29.616Z,9.70
2019-04-30T08:56:59.536Z,9.70
2019-04-30T08:59:29.560Z,9.70
2019-04-30T09:02:12.277Z,9.70
2019-04-30T09:04:32.237Z,9.70
2019-04-30T09:07:01.537Z,9.70
2019-04-30T09:09:30.937Z,9.70
2019-04-30T09:12:00.239Z,9.70
2019-04-30T09:14:29.963Z,9.70
2019-04-30T09:16:59.693Z,9.70
2019-04-30T09:19:29.746Z,9.80
2019-04-30T09:21:59.390Z,9.80
2019-04-30T09:24:30.688Z,9.90
2019-04-30T09:26:59.717Z,9.90
2019-04-30T09:29:29.391Z,9.90
2019-04-30T09:31:59.383Z,9.90
2019-04-30T09:34:29.246Z,10.00
2019-04-30T09:36:59.334Z,10.10
2019-04-30T09:39:29.529Z,10.10
2019-04-30T09:41:59.680Z,10.30
2019-04-30T09:44:30.885Z,10.40
2019-04-30T09:47:00.353Z,10.60
2019-04-30T09:49:29.698Z,10.90
2019-04-30T09:51:59.695Z,10.90
2019-04-30T09:54:29.907Z,11.00
2019-04-30T09:57:00.432Z,11.20
2019-04-30T09:59:29.767Z,11.20
2019-04-30T10:01:59.108Z,11.10
2019-04-30T10:04:30.290Z,11.00
2019-04-30T10:06:59.625Z,10.80
2019-04-30T10:09:29.487Z,10.70
2019-04-30T10:12:12.558Z,10.70
2019-04-30T10:14:41.937Z,10.60
2019-04-30T10:17:29.772Z,10.70
2019-04-30T10:19:59.176Z,10.70
2019-04-30T10:22:28.487Z,10.70
2019-04-30T10:24:59.669Z,10.70
2019-04-30T10:27:29.491Z,10.70
2019-04-30T10:29:59.586Z,10.80
2019-04-30T10:32:29.981Z,10.90
2019-04-30T10:34:58.754Z,11.00
2019-04-30T10:37:28.718Z,11.10
2019-04-30T10:39:59.744Z,11.10
2019-04-30T10:42:29.289Z,11.20
2019-04-30T10:45:00.287Z,11.20
2019-04-30T10:47:32.491Z,11.20
2019-04-30T10:50:00.781Z,11.20
2019-04-30T10:52:30.106Z,11.40
2019-04-30T10:54:59.642Z,11.20
2019-04-30T10:57:29.086Z,11.20
2019-04-30T10:59:58.769Z,11.20
2019-04-30T11:02:28.773Z,11.20
2019-04-30T11:04:59.237Z,11.10
2019-04-30T11:07:28.905Z,11.10
2019-04-30T11:09:58.876Z,11.00
2019-04-30T11:12:29.237Z,10.90
2019-04-30T11:14:58.828Z,10.90
2019-04-30T11:17:30.075Z,10.80
2019-04-30T11:19:59.501Z,10.90
2019-04-30T11:22:29.179Z,10.90
2019-04-30T11:25:02.602Z,11.00
2019-04-30T11:27:32.190Z,11.00
2019-04-30T11:30:04.045Z,11.00
2019-04-30T11:32:33.267Z,11.00
2019-04-30T11:35:03.065Z,11.00
2019-04-30T11:37:32.411Z,11.10
2019-04-30T11:40:01.792Z,11.30
2019-04-30T11:42:32.375Z,11.50
2019-04-30T11:45:01.880Z,11.70
2019-04-30T11:47:32.925Z,11.90
2019-04-30T11:50:02.609Z,11.90
2019-04-30T11:52:32.187Z,11.80
2019-04-30T11:55:01.632Z,11.70
2019-04-30T11:57:31.208Z,11.60
2019-04-30T12:00:00.540Z,11.40
2019-04-30T12:02:33.161Z,11.50
2019-04-30T12:05:05.184Z,11.60
2019-04-30T12:07:38.272Z,11.70
2019-04-30T12:10:13.165Z,11.90
2019-04-30T12:12:43.613Z,12.20
2019-04-30T12:15:12.952Z,12.40
2019-04-30T12:17:42.276Z,12.40
2019-04-30T12:20:12.176Z,12.50
2019-04-30T12:22:41.480Z,12.60
2019-04-30T12:25:11.156Z,12.60
2019-04-30T12:27:40.545Z,12.70
2019-04-30T12:30:10.713Z,13.60
2019-04-30T12:32:40.049Z,15.00
2019-04-30T12:35:11.272Z,16.10
2019-04-30T12:37:41.680Z,17.30
2019-04-30T12:40:25.819Z,17.50
2019-04-30T12:42:42.327Z,18.00
2019-04-30T12:45:12.009Z,17.10
2019-04-30T12:47:45.679Z,16.30
2019-04-30T12:50:51.618Z,15.80
2019-04-30T12:53:28.951Z,15.40
2019-04-30T12:56:02.865Z,15.10
2019-04-30T12:58:32.274Z,14.90
2019-04-30T13:01:01.725Z,14.60
2019-04-30T13:03:31.077Z,14.30
2019-04-30T13:06:01.609Z,13.90
2019-04-30T13:08:31.933Z,13.60
2019-04-30T13:11:02.284Z,13.30
2019-04-30T13:13:32.673Z,13.20
2019-04-30T13:16:01.728Z,13.20
2019-04-30T13:18:30.980Z,13.10
2019-04-30T13:23:09.733Z,13.00
2019-04-30T13:25:48.973Z,14.30
2019-04-30T13:28:11.883Z,15.20
2019-04-30T13:30:42.271Z,15.50
2019-04-30T13:33:20.420Z,15.40
2019-04-30T13:35:49.583Z,15.20
2019-04-30T13:38:20.559Z,15.00
2019-04-30T13:40:53.960Z,14.80
2019-04-30T13:43:39.935Z,14.80
2019-04-30T13:46:08.615Z,14.60
2019-04-30T13:48:38.024Z,15.60
2019-04-30T13:51:07.332Z,16.40
2019-04-30T13:53:36.660Z,16.50
2019-04-30T13:56:06.047Z,16.00
2019-04-30T13:58:35.380Z,15.70
2019-04-30T14:01:05.948Z,15.60
2019-04-30T14:03:39.818Z,15.30
2019-04-30T14:06:10.806Z,15.00
2019-04-30T14:08:53.611Z,15.00
2019-04-30T14:11:22.990Z,14.80
2019-04-30T14:13:52.393Z,14.80
2019-04-30T14:16:22.257Z,14.70
2019-04-30T14:18:51.661Z,14.70
2019-04-30T14:21:32.331Z,15.20
2019-04-30T14:23:52.071Z,15.90
2019-04-30T14:26:21.475Z,15.90
2019-04-30T14:28:50.796Z,15.90
2019-04-30T14:31:20.858Z,15.90
2019-04-30T14:33:51.377Z,15.80
2019-04-30T14:36:20.756Z,15.40
2019-04-30T14:38:50.444Z,15.30
2019-04-30T14:41:20.237Z,15.10
2019-04-30T14:43:55.017Z,15.10
2019-04-30T14:46:26.681Z,15.20
2019-04-30T14:49:15.520Z,15.70
2019-04-30T14:51:45.655Z,16.70
2019-04-30T14:54:22.738Z,17.50
2019-04-30T14:56:53.772Z,17.90
2019-04-30T14:59:33.990Z,18.10
2019-04-30T15:02:08.897Z,18.40
2019-04-30T15:04:39.314Z,18.80
2019-04-30T15:07:09.711Z,19.60
2019-04-30T15:09:39.391Z,20.20
2019-04-30T15:12:09.720Z,19.60
2019-04-30T15:14:40.903Z,19.70
2019-04-30T15:17:10.381Z,18.90
2019-04-30T15:19:39.799Z,18.20
2019-04-30T15:22:09.187Z,17.90
2019-04-30T15:24:40.555Z,17.00
2019-04-30T15:27:09.899Z,16.80
2019-04-30T15:29:39.373Z,16.70
2019-04-30T15:32:08.809Z,16.40
2019-04-30T15:34:40.888Z,16.50
2019-04-30T15:37:19.248Z,16.50
2019-04-30T15:39:41.042Z,15.80
2019-04-30T15:42:10.750Z,15.80
2019-04-30T15:44:42.812Z,15.90
2019-04-30T15:47:11.604Z,16.80
2019-04-30T15:49:41.023Z,17.20
2019-04-30T15:52:10.983Z,17.20
2019-04-30T15:54:40.523Z,17.20
2019-04-30T15:57:09.864Z,17.00
2019-04-30T15:59:41.093Z,17.10
2019-04-30T16:02:18.808Z,17.10
2019-04-30T16:04:52.925Z,17.00
2019-04-30T16:07:22.311Z,16.70
2019-04-30T16:09:59.248Z,16.70
2019-04-30T16:12:39.268Z,16.60
2019-04-30T16:15:10.054Z,16.30
2019-04-30T16:17:41.073Z,16.10
2019-04-30T16:20:10.545Z,15.80
2019-04-30T16:22:40.007Z,15.60
2019-04-30T16:25:09.579Z,15.70
2019-04-30T16:27:39.067Z,15.90
2019-04-30T16:30:09.559Z,15.90
2019-04-30T16:32:40.244Z,15.90
2019-04-30T16:35:09.904Z,16.00
2019-04-30T16:37:39.275Z,16.10
2019-04-30T16:40:10.416Z,15.90
2019-04-30T16:42:39.839Z,15.90
2019-04-30T16:45:09.634Z,15.80
2019-04-30T16:47:39.042Z,15.70
2019-04-30T16:50:09.113Z,15.70
2019-04-30T16:52:39.356Z,15.70
2019-04-30T16:55:13.154Z,15.60
2019-04-30T16:57:45.045Z,15.50
2019-04-30T17:00:16.758Z,15.40
2019-04-30T17:02:49.390Z,15.20
2019-04-30T17:05:25.949Z,15.10
2019-04-30T17:08:02.616Z,15.00
2019-04-30T17:10:39.616Z,14.90
2019-04-30T17:13:16.142Z,14.90
2019-04-30T17:15:47.476Z,14.80
2019-04-30T17:18:18.921Z,14.60
2019-04-30T17:20:49.125Z,14.60
2019-04-30T17:23:19.330Z,14.60
2019-04-30T17:25:48.887Z,14.50
2019-04-30T17:28:18.841Z,14.40
2019-04-30T17:30:49.134Z,14.30
2019-04-30T17:33:18.722Z,14.20
2019-04-30T17:35:49.746Z,14.00
2019-04-30T17:38:19.248Z,13.70
2019-04-30T17:40:49.703Z,13.60
2019-04-30T17:43:18.479Z,13.30
2019-04-30T17:45:49.411Z,13.20
2019-04-30T17:48:19.158Z,13.00
2019-04-30T17:50:49.807Z,12.80
2019-04-30T17:53:19.300Z,12.80
2019-04-30T17:55:49.114Z,12.80
2019-04-30T17:58:20.623Z,12.60
2019-04-30T18:00:51.283Z,12.50
2019-04-30T18:03:20.688Z,12.30
2019-04-30T18:05:50.347Z,12.40
2019-04-30T18:08:19.956Z,12.10
2019-04-30T18:10:49.571Z,12.00
2019-04-30T18:13:18.989Z,11.90
2019-04-30T18:15:49.321Z,11.90
2019-04-30T18:18:20.308Z,11.90
2019-04-30T18:20:56.834Z,11.70
2019-04-30T18:23:43.353Z,11.50
2019-04-30T18:26:14.306Z,11.40
2019-04-30T18:28:43.660Z,11.10
2019-04-30T18:31:13.079Z,11.00
2019-04-30T18:33:42.416Z,11.00
2019-04-30T18:36:11.723Z,10.90
2019-04-30T18:38:41.067Z,10.90
2019-04-30T18:41:10.612Z,10.80
2019-04-30T18:43:40.513Z,10.70
2019-04-30T18:46:10.840Z,10.50
2019-04-30T18:48:40.446Z,10.50
2019-04-30T18:51:29.921Z,10.30
2019-04-30T18:53:40.996Z,10.20
2019-04-30T18:56:14.446Z,10.10
2019-04-30T18:58:43.084Z,10.00
2019-04-30T19:01:13.185Z,9.90
2019-04-30T19:03:42.845Z,9.80
2019-04-30T19:06:22.987Z,9.70
2019-04-30T19:09:02.691Z,9.60
2019-04-30T19:11:49.355Z,9.60
2019-04-30T19:14:35.429Z,9.50
2019-04-30T19:17:06.652Z,9.30
2019-04-30T19:19:43.746Z,9.30
2019-04-30T19:22:14.237Z,9.20
2019-04-30T19:24:55.692Z,9.20
2019-04-30T19:27:14.701Z,9.10
2019-04-30T19:29:44.028Z,9.10
2019-04-30T19:32:13.381Z,9.10
2019-04-30T19:34:42.790Z,9.00
2019-04-30T19:37:12.161Z,8.90
2019-04-30T19:39:41.608Z,8.90
2019-04-30T19:42:10.922Z,8.80
2019-04-30T19:44:40.334Z,8.80
2019-04-30T19:47:10.109Z,8.70
2019-04-30T19:49:41.561Z,8.60
2019-04-30T19:52:11.814Z,8.50
2019-04-30T19:54:40.886Z,8.50
2019-04-30T19:57:10.318Z,8.50
2019-04-30T19:59:39.716Z,8.40
2019-04-30T20:02:10.709Z,8.30
2019-04-30T20:04:42.135Z,8.20
2019-04-30T20:07:11.128Z,8.20
2019-04-30T20:09:43.002Z,8.10
2019-04-30T20:12:11.474Z,8.00
2019-04-30T20:14:40.968Z,8.00
2019-04-30T20:17:13.068Z,8.10
2019-04-30T20:19:41.533Z,8.10
2019-04-30T20:22:11.103Z,8.00
2019-04-30T20:24:40.511Z,7.80
2019-04-30T20:27:10.390Z,7.70
2019-04-30T20:29:40.997Z,7.70
2019-04-30T20:32:10.936Z,7.80
2019-04-30T20:34:40.604Z,7.70
2019-04-30T20:37:09.942Z,7.70
2019-04-30T20:39:43.736Z,7.70
2019-04-30T20:42:13.110Z,7.70
2019-04-30T20:44:42.448Z,7.70
2019-04-30T20:47:11.749Z,7.50
2019-04-30T20:49:41.071Z,7.50
2019-04-30T20:52:10.400Z,7.40
2019-04-30T20:54:39.782Z,7.40
2019-04-30T20:57:09.088Z,7.40
2019-04-30T20:59:38.828Z,7.30
2019-04-30T21:02:08.376Z,7.30
2019-04-30T21:04:37.776Z,7.20
2019-04-30T21:07:07.096Z,7.10
2019-04-30T21:09:38.169Z,7.10
2019-04-30T21:12:08.999Z,6.90
2019-04-30T21:14:40.391Z,6.70
2019-04-30T21:17:09.471Z,6.70
2019-04-30T21:19:38.815Z,6.70
2019-04-30T21:22:09.525Z,6.70
2019-04-30T21:24:39.115Z,6.70
2019-04-30T21:27:08.412Z,6.80
2019-04-30T21:29:39.131Z,6.80
2019-04-30T21:32:09.470Z,6.70
2019-04-30T21:34:40.428Z,6.70
2019-04-30T21:37:09.983Z,6.80
2019-04-30T21:39:39.323Z,6.70
2019-04-30T21:42:09.272Z,6.70
2019-04-30T21:44:39.981Z,6.60
2019-04-30T21:47:09.367Z,6.60
2019-04-30T21:49:38.698Z,6.60
2019-04-30T21:52:08.075Z,6.50
2019-04-30T21:54:38.770Z,6.60
2019-04-30T21:57:07.440Z,6.50
2019-04-30T21:59:38.727Z,6.30
2019-04-30T22:02:08.197Z,6.20
2019-04-30T22:04:37.566Z,6.30
2019-04-30T22:07:07.034Z,6.30
2019-04-30T22:09:36.384Z,6.20
2019-04-30T22:12:05.783Z,6.20
2019-04-30T22:14:35.169Z,6.20
2019-04-30T22:17:04.605Z,6.30
2019-04-30T22:19:33.987Z,6.20
2019-04-30T22:22:03.461Z,6.30
2019-04-30T22:24:32.804Z,6.30
2019-04-30T22:27:02.142Z,6.20
2019-04-30T22:29:39.295Z,6.20
2019-04-30T22:32:02.535Z,6.10
2019-04-30T22:34:31.901Z,6.00
2019-04-30T22:37:02.296Z,5.90
2019-04-30T22:39:36.172Z,5.90
2019-04-30T22:42:30.314Z,5.90
2019-04-30T22:45:01.990Z,6.00
2019-04-30T22:47:30.677Z,5.90
2019-04-30T22:49:59.903Z,5.90
2019-04-30T22:52:29.262Z,5.80
2019-04-30T22:54:58.640Z,5.80
2019-04-30T22:57:27.980Z,5.70
2019-04-30T22:59:57.284Z,5.60
2019-04-30T23:02:28.281Z,5.60
2019-04-30T23:04:58.515Z,5.70
2019-04-30T23:07:27.834Z,5.60
2019-04-30T23:09:57.167Z,5.60
2019-04-30T23:12:26.889Z,5.60
2019-04-30T23:14:56.193Z,5.50
2019-04-30T23:17:25.667Z,5.50
2019-04-30T23:19:54.999Z,5.60
2019-04-30T23:22:24.369Z,5.50
2019-04-30T23:24:53.687Z,5.50
2019-04-30T23:27:22.995Z,5.50
2019-04-30T23:30:02.724Z,5.40
2019-04-30T23:32:23.328Z,5.40
2019-04-30T23:34:52.694Z,5.30
2019-04-30T23:37:22.031Z,5.30
2019-04-30T23:39:51.355Z,5.20
2019-04-30T23:42:20.801Z,5.10
2019-04-30T23:44:50.110Z,5.00
2019-04-30T23:47:19.430Z,5.10
2019-04-30T23:49:48.757Z,5.10
2019-04-30T23:52:18.061Z,5.10
2019-04-30T23:54:47.381Z,5.00
2019-04-30T23:57:16.685Z,5.00
2019-04-30T23:59:46.028Z,5.00
